createdAt,value
2019-05-11T00:02:21.061Z,99625.19
2019-05-11T00:04:47.241Z,99628.48
2019-05-11T00:07:13.378Z,99633.47
2019-05-11T00:09:56.555Z,99631.33
2019-05-11T00:12:07.677Z,99628.16
2019-05-11T00:14:33.880Z,99630.81
2019-05-11T00:17:00.029Z,99630.81
2019-05-11T00:19:26.532Z,99633.81
2019-05-11T00:21:52.692Z,99643.77
2019-05-11T00:24:19.122Z,99637.94
2019-05-11T00:26:45.271Z,99635.63
2019-05-11T00:29:11.488Z,99624.84
2019-05-11T00:31:37.689Z,99615.70
2019-05-11T00:34:03.884Z,99610.23
2019-05-11T00:36:30.078Z,99602.76
2019-05-11T00:38:56.247Z,99597.45
2019-05-11T00:41:22.517Z,99587.00
2019-05-11T00:43:48.723Z,99590.66
2019-05-11T00:46:14.883Z,99588.00
2019-05-11T00:48:41.314Z,99588.66
2019-05-11T00:51:07.461Z,99587.34
2019-05-11T00:53:33.921Z,99584.01
2019-05-11T00:56:00.076Z,99580.70
2019-05-11T00:58:26.229Z,99578.70
2019-05-11T01:00:52.383Z,99578.87
2019-05-11T01:03:18.597Z,99575.56
2019-05-11T01:05:44.779Z,99574.87
2019-05-11T01:08:10.897Z,99578.53
2019-05-11T01:10:42.039Z,99585.67
2019-05-11T01:13:05.109Z,99586.47
2019-05-11T01:15:31.290Z,99584.64
2019-05-11T01:17:57.480Z,99585.62
2019-05-11T01:20:23.657Z,99574.66
2019-05-11T01:22:50.107Z,99576.30
2019-05-11T01:25:16.288Z,99571.48
2019-05-11T01:27:42.473Z,99573.62
2019-05-11T01:30:09.129Z,99566.64
2019-05-11T01:32:35.560Z,99561.34
2019-05-11T01:35:07.797Z,99560.81
2019-05-11T01:37:33.941Z,99565.90
2019-05-11T01:40:00.144Z,99567.03
2019-05-11T01:42:26.335Z,99567.20
2019-05-11T01:44:52.530Z,99566.36
2019-05-11T01:47:18.662Z,99568.66
2019-05-11T01:49:44.833Z,99586.70
2019-05-11T01:52:10.972Z,99586.53
2019-05-11T01:54:37.157Z,99584.19
2019-05-11T01:57:03.297Z,99577.92
2019-05-11T01:59:29.490Z,99568.47
2019-05-11T02:01:55.750Z,99561.34
2019-05-11T02:04:21.909Z,99559.66
2019-05-11T02:06:48.072Z,99567.10
2019-05-11T02:09:14.206Z,99572.88
2019-05-11T02:11:40.405Z,99573.22
2019-05-11T02:14:06.557Z,99565.77
2019-05-11T02:16:33.022Z,99553.69
2019-05-11T02:19:00.849Z,99545.23
2019-05-11T02:21:27.009Z,99554.66
2019-05-11T02:23:53.154Z,99551.33
2019-05-11T02:26:19.842Z,99550.50
2019-05-11T02:28:45.987Z,99537.25
2019-05-11T02:31:18.871Z,99528.80
2019-05-11T02:33:45.011Z,99532.07
2019-05-11T02:36:11.165Z,99536.86
2019-05-11T02:38:37.388Z,99531.52
2019-05-11T02:41:03.806Z,99522.84
2019-05-11T02:43:30.130Z,99531.29
2019-05-11T02:45:56.327Z,99527.45
2019-05-11T02:48:22.476Z,99527.60
2019-05-11T02:50:49.145Z,99530.23
2019-05-11T02:53:35.903Z,99529.74
2019-05-11T02:56:02.284Z,99526.75
2019-05-11T02:58:28.682Z,99531.70
2019-05-11T03:00:54.841Z,99539.64
2019-05-11T03:03:20.969Z,99536.84
2019-05-11T03:05:47.144Z,99530.19
2019-05-11T03:08:13.281Z,99532.14
2019-05-11T03:10:39.467Z,99523.51
2019-05-11T03:13:05.618Z,99515.53
2019-05-11T03:15:31.764Z,99520.14
2019-05-11T03:17:58.004Z,99522.77
2019-05-11T03:20:24.166Z,99527.67
2019-05-11T03:22:50.337Z,99525.69
2019-05-11T03:25:16.720Z,99530.13
2019-05-11T03:27:42.914Z,99532.95
2019-05-11T03:30:09.231Z,99529.80
2019-05-11T03:32:35.434Z,99527.66
2019-05-11T03:35:01.734Z,99529.34
2019-05-11T03:37:28.200Z,99528.20
2019-05-11T03:39:54.463Z,99526.88
2019-05-11T03:42:20.626Z,99533.64
2019-05-11T03:44:46.804Z,99529.30
2019-05-11T03:47:12.965Z,99535.39
2019-05-11T03:49:39.127Z,99538.02
2019-05-11T03:52:05.360Z,99540.31
2019-05-11T03:54:31.502Z,99541.90
2019-05-11T03:56:57.746Z,99543.22
2019-05-11T03:59:24.098Z,99545.84
2019-05-11T04:01:50.379Z,99543.84
2019-05-11T04:04:16.964Z,99543.35
2019-05-11T04:06:43.358Z,99541.70
2019-05-11T04:09:09.494Z,99542.72
2019-05-11T04:11:35.707Z,99542.21
2019-05-11T04:14:01.860Z,99534.61
2019-05-11T04:16:27.994Z,99531.47
2019-05-11T04:18:54.278Z,99529.63
2019-05-11T04:21:20.423Z,99526.45
2019-05-11T04:23:46.824Z,99533.18
2019-05-11T04:26:12.968Z,99531.51
2019-05-11T04:28:39.520Z,99529.53
2019-05-11T04:31:05.658Z,99524.44
2019-05-11T04:33:33.143Z,99524.09
2019-05-11T04:35:59.695Z,99521.93
2019-05-11T04:38:25.903Z,99523.53
2019-05-11T04:40:52.050Z,99518.23
2019-05-11T04:43:18.256Z,99523.52
2019-05-11T04:45:44.406Z,99527.66
2019-05-11T04:48:10.617Z,99523.77
2019-05-11T04:50:36.782Z,99524.52
2019-05-11T04:53:03.171Z,99522.78
2019-05-11T04:55:29.812Z,99521.22
2019-05-11T04:57:56.034Z,99524.31
2019-05-11T05:00:24.315Z,99525.53
2019-05-11T05:02:50.532Z,99518.33
2019-05-11T05:05:16.715Z,99516.67
2019-05-11T05:07:48.913Z,99506.61
2019-05-11T05:10:14.032Z,99495.89
2019-05-11T05:12:39.290Z,99495.92
2019-05-11T05:15:05.651Z,99502.08
2019-05-11T05:17:31.799Z,99503.25
2019-05-11T05:19:58.059Z,99501.61
2019-05-11T05:22:27.745Z,99500.64
2019-05-11T05:24:52.344Z,99497.98
2019-05-11T05:27:18.586Z,99500.16
2019-05-11T05:29:44.784Z,99496.52
2019-05-11T05:32:11.261Z,99497.53
2019-05-11T05:34:37.464Z,99499.88
2019-05-11T05:37:03.602Z,99501.70
2019-05-11T05:39:29.818Z,99495.41
2019-05-11T05:41:57.512Z,99498.23
2019-05-11T05:44:27.922Z,99495.95
2019-05-11T05:46:54.081Z,99492.16
2019-05-11T05:49:20.326Z,99476.58
2019-05-11T05:51:46.472Z,99475.78
2019-05-11T05:54:12.991Z,99470.49
2019-05-11T05:59:09.039Z,99470.34
2019-05-11T06:01:35.190Z,99469.02
2019-05-11T06:04:08.078Z,99471.02
2019-05-11T06:06:34.256Z,99465.05
2019-05-11T06:09:07.699Z,99468.36
2019-05-11T06:11:34.184Z,99472.36
2019-05-11T06:14:00.344Z,99479.14
2019-05-11T06:16:26.546Z,99475.86
2019-05-11T06:18:58.490Z,99479.34
2019-05-11T06:21:24.697Z,99480.68
2019-05-11T06:23:57.606Z,99469.72
2019-05-11T06:26:23.760Z,99463.41
2019-05-11T06:28:49.981Z,99459.25
2019-05-11T06:31:16.117Z,99459.90
2019-05-11T06:33:42.327Z,99452.37
2019-05-11T06:36:08.764Z,99448.29
2019-05-11T06:38:35.086Z,99448.38
2019-05-11T06:41:01.275Z,99442.04
2019-05-11T06:43:27.429Z,99439.18
2019-05-11T06:45:53.665Z,99442.01
2019-05-11T06:48:19.824Z,99437.70
2019-05-11T06:50:46.023Z,99431.05
2019-05-11T06:53:12.171Z,99432.35
2019-05-11T06:55:38.396Z,99428.00
2019-05-11T06:58:04.929Z,99429.41
2019-05-11T07:00:31.137Z,99428.97
2019-05-11T07:02:57.658Z,99426.61
2019-05-11T07:05:24.192Z,99425.27
2019-05-11T07:07:50.331Z,99423.09
2019-05-11T07:10:16.541Z,99425.70
2019-05-11T07:12:42.683Z,99424.34
2019-05-11T07:15:09.394Z,99420.77
2019-05-11T07:17:35.563Z,99421.89
2019-05-11T07:20:06.322Z,99422.21
2019-05-11T07:22:32.490Z,99419.72
2019-05-11T07:24:58.716Z,99418.03
2019-05-11T07:27:24.852Z,99416.64
2019-05-11T07:29:51.034Z,99413.29
2019-05-11T07:32:24.986Z,99415.88
2019-05-11T07:34:45.613Z,99411.88
2019-05-11T07:37:12.003Z,99413.53
2019-05-11T07:39:38.464Z,99416.47
2019-05-11T07:42:07.881Z,99409.08
2019-05-11T07:44:38.553Z,99408.38
2019-05-11T07:47:02.181Z,99412.68
2019-05-11T07:49:29.241Z,99414.66
2019-05-11T07:51:55.588Z,99415.60
2019-05-11T07:54:21.741Z,99414.77
2019-05-11T07:56:48.070Z,99414.77
2019-05-11T07:59:14.565Z,99414.75
2019-05-11T08:01:40.757Z,99419.12
2019-05-11T08:04:07.845Z,99432.06
2019-05-11T08:06:34.206Z,99438.60
2019-05-11T08:09:00.411Z,99440.48
2019-05-11T08:11:30.730Z,99438.09
2019-05-11T08:13:54.728Z,99438.19
2019-05-11T08:16:20.904Z,99437.91
2019-05-11T08:18:48.158Z,99433.12
2019-05-11T08:21:14.729Z,99437.48
2019-05-11T08:23:41.227Z,99437.66
2019-05-11T08:26:08.503Z,99438.02
2019-05-11T08:28:35.117Z,99437.41
2019-05-11T08:31:01.343Z,99434.80
2019-05-11T08:33:28.416Z,99437.34
2019-05-11T08:35:55.150Z,99441.65
2019-05-11T08:38:21.294Z,99445.33
2019-05-11T08:40:48.513Z,99443.88
2019-05-11T08:43:14.849Z,99441.89
2019-05-11T08:45:40.981Z,99453.67
2019-05-11T08:48:08.124Z,99454.33
2019-05-11T08:50:34.412Z,99454.00
2019-05-11T08:53:00.657Z,99459.81
2019-05-11T08:55:28.898Z,99452.98
2019-05-11T08:57:54.909Z,99450.31
2019-05-11T09:00:21.063Z,99455.46
2019-05-11T09:02:50.474Z,99456.47
2019-05-11T09:05:15.316Z,99450.99
2019-05-11T09:07:41.513Z,99452.69
2019-05-11T09:10:08.343Z,99453.20
2019-05-11T09:12:34.656Z,99447.23
2019-05-11T09:15:00.806Z,99449.74
2019-05-11T09:17:28.874Z,99441.80
2019-05-11T09:19:55.499Z,99443.03
2019-05-11T09:22:21.676Z,99433.09
2019-05-11T09:24:47.957Z,99431.50
2019-05-11T09:27:14.130Z,99429.87
2019-05-11T09:29:40.268Z,99419.63
2019-05-11T09:32:08.669Z,99426.33
2019-05-11T09:34:34.547Z,99430.70
2019-05-11T09:37:00.944Z,99428.75
2019-05-11T09:39:28.041Z,99435.38
2019-05-11T09:41:54.491Z,99433.55
2019-05-11T09:44:20.724Z,99438.56
2019-05-11T09:46:47.769Z,99437.11
2019-05-11T09:49:14.311Z,99443.23
2019-05-11T09:51:40.581Z,99441.58
2019-05-11T09:54:07.841Z,99446.93
2019-05-11T09:56:34.504Z,99459.37
2019-05-11T09:59:00.726Z,99469.33
2019-05-11T10:01:26.864Z,99473.52
2019-05-11T10:03:53.127Z,99473.34
2019-05-11T10:06:19.322Z,99473.70
2019-05-11T10:08:45.906Z,99473.87
2019-05-11T10:11:12.072Z,99473.19
2019-05-11T10:13:38.644Z,99470.88
2019-05-11T10:16:08.139Z,99467.08
2019-05-11T10:18:33.060Z,99460.92
2019-05-11T10:20:59.286Z,99459.27
2019-05-11T10:23:27.737Z,99462.77
2019-05-11T10:25:53.566Z,99468.39
2019-05-11T10:28:19.849Z,99469.06
2019-05-11T10:30:48.522Z,99465.09
2019-05-11T10:33:14.354Z,99463.25
2019-05-11T10:35:40.593Z,99463.09
2019-05-11T10:38:09.012Z,99457.63
2019-05-11T10:40:35.183Z,99455.47
2019-05-11T10:43:01.341Z,99453.98
2019-05-11T10:45:28.475Z,99442.19
2019-05-11T10:47:58.561Z,99428.91
2019-05-11T10:50:23.083Z,99426.10
2019-05-11T10:52:49.236Z,99421.28
2019-05-11T10:55:15.573Z,99419.76
2019-05-11T10:57:41.756Z,99421.73
2019-05-11T11:00:08.839Z,99412.41
2019-05-11T11:02:35.359Z,99399.98
2019-05-11T11:05:08.410Z,99397.81
2019-05-11T11:07:35.060Z,99397.47
2019-05-11T11:10:01.208Z,99401.11
2019-05-11T11:12:33.983Z,99399.06
2019-05-11T11:15:00.410Z,99392.59
2019-05-11T11:17:28.703Z,99386.91
2019-05-11T11:19:55.057Z,99382.11
2019-05-11T11:22:36.207Z,99379.42
2019-05-11T11:24:49.323Z,99376.89
2019-05-11T11:27:15.489Z,99375.09
2019-05-11T11:29:41.627Z,99375.71
2019-05-11T11:32:08.079Z,99371.73
2019-05-11T11:34:34.363Z,99371.56
2019-05-11T11:37:00.593Z,99373.69
2019-05-11T11:39:28.291Z,99365.39
2019-05-11T11:41:54.734Z,99362.89
2019-05-11T11:44:21.201Z,99357.07
2019-05-11T11:46:54.726Z,99353.59
2019-05-11T11:49:15.799Z,99351.15
2019-05-11T11:51:42.247Z,99342.72
2019-05-11T11:54:08.876Z,99342.69
2019-05-11T11:56:37.752Z,99344.70
2019-05-11T11:59:03.424Z,99344.86
2019-05-11T12:01:29.681Z,99343.74
2019-05-11T12:03:57.923Z,99340.89
2019-05-11T12:06:24.077Z,99345.86
2019-05-11T12:08:50.221Z,99347.51
2019-05-11T12:11:18.618Z,99346.69
2019-05-11T12:13:44.470Z,99347.31
2019-05-11T12:16:10.702Z,99344.84
2019-05-11T12:18:38.101Z,99347.30
2019-05-11T12:21:04.422Z,99349.78
2019-05-11T12:23:30.569Z,99348.45
2019-05-11T12:25:58.016Z,99353.72
2019-05-11T12:28:24.374Z,99349.56
2019-05-11T12:30:50.537Z,99345.05
2019-05-11T12:33:18.725Z,99351.17
2019-05-11T12:35:44.779Z,99346.34
2019-05-11T12:38:10.993Z,99348.66
2019-05-11T12:40:38.947Z,99342.98
2019-05-11T12:43:05.243Z,99339.83
2019-05-11T12:45:31.376Z,99340.13
2019-05-11T12:47:58.754Z,99343.09
2019-05-11T12:50:25.239Z,99341.42
2019-05-11T12:52:51.422Z,99346.57
2019-05-11T12:55:18.085Z,99340.27
2019-05-11T12:57:44.410Z,99343.26
2019-05-11T13:00:11.163Z,99353.27
2019-05-11T13:02:38.871Z,99353.42
2019-05-11T13:05:08.638Z,99352.08
2019-05-11T13:07:34.985Z,99352.56
2019-05-11T13:10:01.212Z,99355.56
2019-05-11T13:12:27.999Z,99356.86
2019-05-11T13:14:54.207Z,99348.23
2019-05-11T13:17:34.026Z,99339.56
2019-05-11T13:19:48.600Z,99339.70
2019-05-11T13:22:14.787Z,99334.40
2019-05-11T13:24:40.947Z,99332.60
2019-05-11T13:27:08.342Z,99333.28
2019-05-11T13:29:34.723Z,99338.63
2019-05-11T13:32:00.961Z,99338.30
2019-05-11T13:34:31.170Z,99341.48
2019-05-11T13:36:57.404Z,99329.39
2019-05-11T13:39:23.831Z,99322.77
2019-05-11T13:41:49.980Z,99331.06
2019-05-11T13:44:18.429Z,99330.50
2019-05-11T13:46:44.457Z,99324.65
2019-05-11T13:49:10.673Z,99329.72
2019-05-11T13:51:38.771Z,99332.66
2019-05-11T13:54:05.180Z,99338.87
2019-05-11T13:56:32.346Z,99339.95
2019-05-11T13:59:10.662Z,99346.67
2019-05-11T14:01:38.104Z,99344.64
2019-05-11T14:04:04.925Z,99333.44
2019-05-11T14:06:31.406Z,99338.69
2019-05-11T14:08:58.735Z,99336.33
2019-05-11T14:11:25.615Z,99329.42
2019-05-11T14:13:57.896Z,99320.22
2019-05-11T14:16:24.190Z,99320.19
2019-05-11T14:18:50.915Z,99318.13
2019-05-11T14:21:18.615Z,99322.24
2019-05-11T14:23:45.116Z,99325.05
2019-05-11T14:26:11.346Z,99329.48
2019-05-11T14:28:37.917Z,99331.53
2019-05-11T14:31:04.173Z,99334.86
2019-05-11T14:33:30.502Z,99331.56
2019-05-11T14:35:57.886Z,99333.77
2019-05-11T14:38:24.286Z,99339.48
2019-05-11T14:40:50.446Z,99341.66
2019-05-11T14:43:18.785Z,99337.77
2019-05-11T14:45:44.875Z,99340.22
2019-05-11T14:48:22.974Z,99341.14
2019-05-11T14:50:39.160Z,99340.02
2019-05-11T14:53:05.373Z,99336.37
2019-05-11T14:55:31.518Z,99333.95
2019-05-11T14:57:57.794Z,99340.05
2019-05-11T15:00:24.005Z,99348.14
2019-05-11T15:02:50.270Z,99346.98
2019-05-11T15:05:19.701Z,99345.84
2019-05-11T15:07:47.961Z,99353.09
2019-05-11T15:10:14.775Z,99364.28
2019-05-11T15:12:41.074Z,99370.50
2019-05-11T15:15:08.095Z,99373.33
2019-05-11T15:17:34.286Z,99372.64
2019-05-11T15:20:00.573Z,99376.63
2019-05-11T15:22:28.672Z,99373.12
2019-05-11T15:24:58.805Z,99375.39
2019-05-11T15:27:25.082Z,99373.17
2019-05-11T15:29:51.317Z,99372.18
2019-05-11T15:32:18.042Z,99370.38
2019-05-11T15:34:44.494Z,99369.08
2019-05-11T15:37:10.899Z,99374.58
2019-05-11T15:39:39.244Z,99369.27
2019-05-11T15:42:09.807Z,99367.91
2019-05-11T15:44:33.773Z,99365.89
2019-05-11T15:46:59.927Z,99368.57
2019-05-11T15:49:28.408Z,99361.53
2019-05-11T15:51:54.719Z,99359.85
2019-05-11T15:54:21.289Z,99367.16
2019-05-11T15:56:47.417Z,99366.30
2019-05-11T15:59:13.628Z,99377.31
2019-05-11T16:01:41.129Z,99376.01
2019-05-11T16:04:09.136Z,99386.69
2019-05-11T16:06:35.874Z,99392.70
2019-05-11T16:09:05.018Z,99392.05
2019-05-11T16:11:31.171Z,99401.88
2019-05-11T16:13:58.672Z,99408.19
2019-05-11T16:16:25.121Z,99421.84
2019-05-11T16:18:51.245Z,99420.17
2019-05-11T16:21:18.180Z,99423.36
2019-05-11T16:23:44.425Z,99426.06
2019-05-11T16:26:10.633Z,99424.77
2019-05-11T16:28:38.392Z,99425.98
2019-05-11T16:31:04.842Z,99433.02
2019-05-11T16:33:30.989Z,99435.03
2019-05-11T16:35:58.040Z,99443.40
2019-05-11T16:38:25.549Z,99441.95
2019-05-11T16:40:51.792Z,99446.99
2019-05-11T16:43:19.189Z,99445.88
2019-05-11T16:45:45.684Z,99448.58
2019-05-11T16:48:11.838Z,99457.45
2019-05-11T16:50:38.508Z,99458.98
2019-05-11T16:53:04.763Z,99463.47
2019-05-11T16:55:31.242Z,99463.30
2019-05-11T16:57:58.829Z,99471.11
2019-05-11T17:00:25.269Z,99466.13
2019-05-11T17:02:51.677Z,99466.41
2019-05-11T17:05:25.719Z,99470.78
2019-05-11T17:07:48.349Z,99472.78
2019-05-11T17:10:17.658Z,99479.12
2019-05-11T17:12:43.206Z,99483.45
2019-05-11T17:15:10.357Z,99490.16
2019-05-11T17:17:36.645Z,99495.50
2019-05-11T17:20:04.707Z,99499.82
2019-05-11T17:22:30.907Z,99506.14
2019-05-11T17:24:58.962Z,99507.16
2019-05-11T17:27:25.451Z,99506.85
2019-05-11T17:29:51.589Z,99505.05
2019-05-11T17:32:17.886Z,99502.23
2019-05-11T17:34:44.067Z,99508.70
2019-05-11T17:37:10.334Z,99512.73
2019-05-11T17:39:38.477Z,99515.25
2019-05-11T17:42:04.639Z,99523.07
2019-05-11T17:44:31.176Z,99529.05
2019-05-11T17:46:57.842Z,99537.88
2019-05-11T17:49:24.112Z,99542.22
2019-05-11T17:51:52.165Z,99549.86
2019-05-11T17:54:18.578Z,99560.19
2019-05-11T17:56:44.975Z,99571.71
2019-05-11T17:59:11.187Z,99572.17
2019-05-11T18:01:37.412Z,99577.19
2019-05-11T18:04:04.370Z,99580.52
2019-05-11T18:06:30.580Z,99588.53
2019-05-11T18:08:58.466Z,99591.56
2019-05-11T18:11:24.819Z,99600.72
2019-05-11T18:13:51.065Z,99602.73
2019-05-11T18:16:18.714Z,99610.22
2019-05-11T18:18:45.063Z,99619.23
2019-05-11T18:21:11.272Z,99626.23
2019-05-11T18:23:38.747Z,99628.72
2019-05-11T18:26:05.162Z,99631.42
2019-05-11T18:28:31.420Z,99638.41
2019-05-11T18:30:58.258Z,99639.58
2019-05-11T18:33:27.537Z,99643.73
2019-05-11T18:35:53.315Z,99649.06
2019-05-11T18:38:19.829Z,99652.41
2019-05-11T18:40:45.978Z,99665.20
2019-05-11T18:43:12.186Z,99668.05
2019-05-11T18:45:38.540Z,99677.66
2019-05-11T18:48:08.040Z,99689.28
2019-05-11T18:50:34.838Z,99687.10
2019-05-11T18:53:09.217Z,99697.73
2019-05-11T18:55:37.802Z,99703.20
2019-05-11T18:58:04.016Z,99705.38
2019-05-11T19:00:30.366Z,99716.00
2019-05-11T19:02:57.971Z,99718.81
2019-05-11T19:05:24.408Z,99722.98
2019-05-11T19:07:50.606Z,99722.15
2019-05-11T19:10:16.951Z,99725.14
2019-05-11T19:12:43.217Z,99723.16
2019-05-11T19:15:09.797Z,99722.81
2019-05-11T19:17:38.282Z,99722.48
2019-05-11T19:20:08.252Z,99724.63
2019-05-11T19:22:34.668Z,99727.61
2019-05-11T19:25:01.702Z,99730.58
2019-05-11T19:27:28.848Z,99729.89
2019-05-11T19:29:55.139Z,99730.40
2019-05-11T19:32:21.327Z,99737.02
2019-05-11T19:34:47.849Z,99738.64
2019-05-11T19:37:14.211Z,99743.63
2019-05-11T19:39:40.432Z,99737.99
2019-05-11T19:42:29.190Z,99752.07
2019-05-11T19:44:55.832Z,99745.60
2019-05-11T19:47:25.164Z,99753.21
2019-05-11T19:49:51.430Z,99755.69
2019-05-11T19:52:17.892Z,99760.52
2019-05-11T19:54:44.207Z,99765.16
2019-05-11T19:57:10.346Z,99765.29
2019-05-11T19:59:38.694Z,99776.89
2019-05-11T20:02:04.613Z,99779.35
2019-05-11T20:04:30.831Z,99785.00
2019-05-11T20:06:58.252Z,99794.28
2019-05-11T20:09:24.625Z,99803.56
2019-05-11T20:11:50.765Z,99817.83
2019-05-11T20:14:16.986Z,99826.79
2019-05-11T20:16:43.436Z,99823.47
2019-05-11T20:19:09.636Z,99833.56
2019-05-11T20:21:38.003Z,99841.20
2019-05-11T20:24:03.951Z,99851.48
2019-05-11T20:26:30.087Z,99850.13
2019-05-11T20:28:58.625Z,99860.28
2019-05-11T20:31:24.365Z,99868.54
2019-05-11T20:33:50.561Z,99872.51
2019-05-11T20:36:17.811Z,99879.95
2019-05-11T20:38:44.495Z,99885.92
2019-05-11T20:41:10.631Z,99897.98
2019-05-11T20:43:37.145Z,99900.76
2019-05-11T20:46:03.306Z,99906.69
2019-05-11T20:48:29.446Z,99906.18
2019-05-11T20:50:58.637Z,99908.30
2019-05-11T20:53:25.038Z,99913.55
2019-05-11T20:55:51.611Z,99918.98
2019-05-11T20:58:18.981Z,99918.63
2019-05-11T21:00:45.403Z,99926.03
2019-05-11T21:03:11.541Z,99928.33
2019-05-11T21:05:38.063Z,99928.84
2019-05-11T21:08:04.223Z,99933.92
2019-05-11T21:10:30.423Z,99933.41
2019-05-11T21:12:57.707Z,99941.17
2019-05-11T21:15:24.108Z,99939.50
2019-05-11T21:17:50.781Z,99951.74
2019-05-11T21:20:18.105Z,99960.80
2019-05-11T21:22:44.543Z,99972.35
2019-05-11T21:25:13.522Z,99974.95
2019-05-11T21:27:39.711Z,99977.91
2019-05-11T21:30:09.097Z,99975.73
2019-05-11T21:32:35.777Z,99980.31
2019-05-11T21:35:02.399Z,99983.95
2019-05-11T21:37:28.561Z,99985.09
2019-05-11T21:39:54.914Z,99991.39
2019-05-11T21:42:21.079Z,99999.11
2019-05-11T21:44:47.303Z,100001.91
2019-05-11T21:47:13.441Z,100010.82
2019-05-11T21:49:39.846Z,100014.07
2019-05-11T21:52:07.804Z,100014.20
2019-05-11T21:54:34.103Z,100012.86
2019-05-11T21:57:00.268Z,100008.02
2019-05-11T21:59:27.669Z,100004.84
2019-05-11T22:01:54.029Z,100013.42
2019-05-11T22:04:20.257Z,100024.19
2019-05-11T22:06:48.378Z,100025.95
2019-05-11T22:09:14.508Z,100027.41
2019-05-11T22:11:40.741Z,100037.97
2019-05-11T22:14:08.292Z,100042.44
2019-05-11T22:16:34.713Z,100047.37
2019-05-11T22:19:00.840Z,100050.85
2019-05-11T22:21:28.004Z,100064.72
2019-05-11T22:23:54.307Z,100075.48
2019-05-11T22:26:20.547Z,100078.79
2019-05-11T22:28:48.156Z,100079.12
2019-05-11T22:31:18.288Z,100088.22
2019-05-11T22:33:44.697Z,100090.80
2019-05-11T22:36:11.112Z,100096.77
2019-05-11T22:38:38.735Z,100094.41
2019-05-11T22:41:05.127Z,100102.16
2019-05-11T22:43:31.289Z,100101.46
2019-05-11T22:45:58.118Z,100113.50
2019-05-11T22:48:24.391Z,100117.23
2019-05-11T22:50:50.829Z,100125.31
2019-05-11T22:53:18.843Z,100135.00
2019-05-11T22:55:45.173Z,100143.06
2019-05-11T22:58:11.308Z,100138.31
2019-05-11T23:00:41.455Z,100135.76
2019-05-11T23:03:10.586Z,100139.12
2019-05-11T23:05:35.703Z,100148.50
2019-05-11T23:08:03.622Z,100157.15
2019-05-11T23:10:29.758Z,100161.11
2019-05-11T23:12:56.255Z,100181.94
2019-05-11T23:15:22.394Z,100187.88
2019-05-11T23:17:48.672Z,100194.27
2019-05-11T23:20:15.194Z,100198.45
2019-05-11T23:22:56.677Z,100208.95
2019-05-11T23:25:18.224Z,100219.72
2019-05-11T23:27:44.467Z,100226.05
2019-05-11T23:30:12.522Z,100223.80
2019-05-11T23:32:38.730Z,100228.00
2019-05-11T23:35:08.175Z,100234.05
2019-05-11T23:37:33.589Z,100237.26
2019-05-11T23:39:59.763Z,100242.93
2019-05-11T23:42:25.957Z,100256.03
2019-05-11T23:44:52.112Z,100262.30
2019-05-11T23:47:20.275Z,100260.27
2019-05-11T23:49:47.951Z,100267.86
2019-05-11T23:52:14.335Z,100269.94
2019-05-11T23:54:40.462Z,100275.81
2019-05-11T23:57:09.301Z,100285.77
2019-05-11T23:59:34.764Z,100285.63
